sensor_id;sensor_type;location;lat;lon;timestamp;pressure;altitude;pressure_sealevel;temperature;humidity
12799;BME280;19250;42.646;26.980;2022-07-12T00:01:57;99158.94;;;22.19;41.47
12799;BME280;19250;42.646;26.980;2022-07-12T00:04:26;99157.81;;;22.08;42.14
12799;BME280;19250;42.646;26.980;2022-07-12T00:06:53;99163.78;;;21.99;42.67
12799;BME280;19250;42.646;26.980;2022-07-12T00:09:20;99169.00;;;22.30;42.25
12799;BME280;19250;42.646;26.980;2022-07-12T00:11:48;99163.53;;;22.18;42.31
12799;BME280;19250;42.646;26.980;2022-07-12T00:14:15;99119.88;;;21.47;42.97
12799;BME280;19250;42.646;26.980;2022-07-12T00:16:43;99162.94;;;21.62;43.44
12799;BME280;19250;42.646;26.980;2022-07-12T00:19:10;99160.09;;;21.93;43.63
12799;BME280;19250;42.646;26.980;2022-07-12T00:21:39;99169.06;;;22.12;42.47
12799;BME280;19250;42.646;26.980;2022-07-12T00:24:06;99165.38;;;22.36;41.87
12799;BME280;19250;42.646;26.980;2022-07-12T00:26:33;99159.97;;;21.88;43.13
12799;BME280;19250;42.646;26.980;2022-07-12T00:29:00;99168.75;;;21.84;43.04
12799;BME280;19250;42.646;26.980;2022-07-12T00:31:28;99161.75;;;21.76;43.40
12799;BME280;19250;42.646;26.980;2022-07-12T00:33:55;99171.41;;;21.90;43.59
12799;BME280;19250;42.646;26.980;2022-07-12T00:36:22;99167.66;;;21.91;43.47
12799;BME280;19250;42.646;26.980;2022-07-12T00:38:51;99165.53;;;21.93;43.33
12799;BME280;19250;42.646;26.980;2022-07-12T00:41:18;99168.03;;;21.95;43.28
12799;BME280;19250;42.646;26.980;2022-07-12T00:43:46;99166.56;;;21.74;43.87
12799;BME280;19250;42.646;26.980;2022-07-12T00:46:14;99143.47;;;21.47;44.33
12799;BME280;19250;42.646;26.980;2022-07-12T00:48:41;99161.53;;;21.35;45.28
12799;BME280;19250;42.646;26.980;2022-07-12T00:51:09;99165.25;;;20.91;47.03
12799;BME280;19250;42.646;26.980;2022-07-12T00:53:36;99162.19;;;21.12;46.59
12799;BME280;19250;42.646;26.980;2022-07-12T00:56:06;99166.28;;;21.21;46.54
12799;BME280;19250;42.646;26.980;2022-07-12T00:58:33;99159.22;;;21.38;45.80
12799;BME280;19250;42.646;26.980;2022-07-12T01:01:00;99167.66;;;21.30;45.71
12799;BME280;19250;42.646;26.980;2022-07-12T01:03:28;99168.09;;;21.27;45.71
12799;BME280;19250;42.646;26.980;2022-07-12T01:05:55;99165.41;;;21.45;45.87
12799;BME280;19250;42.646;26.980;2022-07-12T01:08:23;99167.81;;;21.35;45.61
12799;BME280;19250;42.646;26.980;2022-07-12T01:10:52;99168.56;;;21.42;45.69
12799;BME280;19250;42.646;26.980;2022-07-12T01:13:21;99160.75;;;21.34;45.64
12799;BME280;19250;42.646;26.980;2022-07-12T01:15:49;99128.75;;;21.18;45.77
12799;BME280;19250;42.646;26.980;2022-07-12T01:18:18;99161.53;;;21.35;45.37
12799;BME280;19250;42.646;26.980;2022-07-12T01:20:45;99163.22;;;21.36;45.42
12799;BME280;19250;42.646;26.980;2022-07-12T01:23:14;99158.66;;;21.11;46.59
12799;BME280;19250;42.646;26.980;2022-07-12T01:25:42;99163.88;;;20.82;47.78
12799;BME280;19250;42.646;26.980;2022-07-12T01:28:10;99174.44;;;21.39;46.19
12799;BME280;19250;42.646;26.980;2022-07-12T01:30:37;99117.91;;;20.69;46.87
12799;BME280;19250;42.646;26.980;2022-07-12T01:33:04;99169.16;;;21.26;46.43
12799;BME280;19250;42.646;26.980;2022-07-12T01:35:32;99165.72;;;21.37;46.15
12799;BME280;19250;42.646;26.980;2022-07-12T01:38:01;99167.41;;;21.07;46.62
12799;BME280;19250;42.646;26.980;2022-07-12T01:40:30;99157.84;;;21.29;46.43
12799;BME280;19250;42.646;26.980;2022-07-12T01:42:58;99161.56;;;20.85;47.57
12799;BME280;19250;42.646;26.980;2022-07-12T01:45:25;99164.59;;;20.95;47.79
12799;BME280;19250;42.646;26.980;2022-07-12T01:47:53;99104.94;;;20.95;46.92
12799;BME280;19250;42.646;26.980;2022-07-12T01:50:24;99165.63;;;21.44;46.17
12799;BME280;19250;42.646;26.980;2022-07-12T01:52:51;99162.56;;;21.58;44.96
12799;BME280;19250;42.646;26.980;2022-07-12T01:55:19;99156.94;;;21.35;45.00
12799;BME280;19250;42.646;26.980;2022-07-12T01:57:48;99151.59;;;21.47;46.19
12799;BME280;19250;42.646;26.980;2022-07-12T02:00:16;99149.63;;;21.17;46.32
12799;BME280;19250;42.646;26.980;2022-07-12T02:02:46;99155.44;;;21.21;46.03
12799;BME280;19250;42.646;26.980;2022-07-12T02:05:13;99053.41;;;20.77;45.75
12799;BME280;19250;42.646;26.980;2022-07-12T02:07:40;99158.63;;;21.36;46.07
12799;BME280;19250;42.646;26.980;2022-07-12T02:10:08;99161.78;;;21.33;46.31
12799;BME280;19250;42.646;26.980;2022-07-12T02:12:36;99156.31;;;21.15;47.41
12799;BME280;19250;42.646;26.980;2022-07-12T02:15:07;99161.19;;;21.31;47.09
12799;BME280;19250;42.646;26.980;2022-07-12T02:17:34;99074.97;;;20.66;46.31
12799;BME280;19250;42.646;26.980;2022-07-12T02:20:03;99158.34;;;21.20;47.42
12799;BME280;19250;42.646;26.980;2022-07-12T02:22:31;99161.06;;;21.20;47.76
12799;BME280;19250;42.646;26.980;2022-07-12T02:25:00;99161.53;;;21.35;46.95
12799;BME280;19250;42.646;26.980;2022-07-12T02:27:27;99076.63;;;20.91;46.39
12799;BME280;19250;42.646;26.980;2022-07-12T02:29:54;99163.66;;;21.33;46.44
12799;BME280;19250;42.646;26.980;2022-07-12T02:32:23;99171.44;;;20.98;48.35
12799;BME280;19250;42.646;26.980;2022-07-12T02:34:50;99168.38;;;20.94;49.14
12799;BME280;19250;42.646;26.980;2022-07-12T02:37:17;99135.69;;;20.83;48.37
12799;BME280;19250;42.646;26.980;2022-07-12T02:39:45;99174.00;;;20.93;46.81
12799;BME280;19250;42.646;26.980;2022-07-12T02:42:12;99174.34;;;21.03;45.64
12799;BME280;19250;42.646;26.980;2022-07-12T02:44:39;99118.00;;;20.80;44.92
12799;BME280;19250;42.646;26.980;2022-07-12T02:47:06;99187.84;;;20.85;46.76
12799;BME280;19250;42.646;26.980;2022-07-12T02:49:35;99184.22;;;20.66;48.77
12799;BME280;19250;42.646;26.980;2022-07-12T02:52:03;99188.19;;;20.19;49.38
12799;BME280;19250;42.646;26.980;2022-07-12T02:54:30;99183.38;;;20.66;48.83
12799;BME280;19250;42.646;26.980;2022-07-12T02:56:57;99188.34;;;20.69;46.95
12799;BME280;19250;42.646;26.980;2022-07-12T02:59:25;99180.88;;;20.64;46.91
12799;BME280;19250;42.646;26.980;2022-07-12T03:01:52;99184.34;;;19.95;49.95
12799;BME280;19250;42.646;26.980;2022-07-12T03:04:19;99179.47;;;20.17;49.63
12799;BME280;19250;42.646;26.980;2022-07-12T03:06:48;99185.22;;;20.72;46.86
12799;BME280;19250;42.646;26.980;2022-07-12T03:09:15;99176.56;;;20.56;47.03
12799;BME280;19250;42.646;26.980;2022-07-12T03:11:43;99188.41;;;20.62;47.91
12799;BME280;19250;42.646;26.980;2022-07-12T03:14:10;99184.78;;;20.37;48.30
12799;BME280;19250;42.646;26.980;2022-07-12T03:16:37;99190.09;;;20.56;47.97
12799;BME280;19250;42.646;26.980;2022-07-12T03:19:04;99183.81;;;20.94;45.92
12799;BME280;19250;42.646;26.980;2022-07-12T03:21:32;99189.13;;;20.82;46.67
12799;BME280;19250;42.646;26.980;2022-07-12T03:24:00;99187.44;;;20.81;46.60
12799;BME280;19250;42.646;26.980;2022-07-12T03:26:28;99178.53;;;20.99;46.31
12799;BME280;19250;42.646;26.980;2022-07-12T03:28:55;99140.09;;;20.84;44.89
12799;BME280;19250;42.646;26.980;2022-07-12T03:31:22;99086.47;;;20.36;45.55
12799;BME280;19250;42.646;26.980;2022-07-12T03:33:49;99194.72;;;20.81;45.97
12799;BME280;19250;42.646;26.980;2022-07-12T03:36:17;99190.94;;;20.88;46.34
12799;BME280;19250;42.646;26.980;2022-07-12T03:38:44;99195.25;;;20.96;46.40
12799;BME280;19250;42.646;26.980;2022-07-12T03:41:13;99187.28;;;21.01;46.39
12799;BME280;19250;42.646;26.980;2022-07-12T03:43:40;99195.41;;;20.76;47.43
12799;BME280;19250;42.646;26.980;2022-07-12T03:46:07;99189.44;;;20.61;47.02
12799;BME280;19250;42.646;26.980;2022-07-12T03:48:34;99193.59;;;20.32;48.48
12799;BME280;19250;42.646;26.980;2022-07-12T03:51:02;99186.47;;;19.87;51.54
12799;BME280;19250;42.646;26.980;2022-07-12T03:53:29;99192.50;;;19.89;51.94
12799;BME280;19250;42.646;26.980;2022-07-12T03:55:56;99182.53;;;19.76;53.04
12799;BME280;19250;42.646;26.980;2022-07-12T03:58:25;99189.03;;;20.20;51.64
12799;BME280;19250;42.646;26.980;2022-07-12T04:00:52;99196.72;;;20.23;54.08
12799;BME280;19250;42.646;26.980;2022-07-12T04:03:19;99191.44;;;20.41;51.34
12799;BME280;19250;42.646;26.980;2022-07-12T04:05:47;99197.38;;;20.18;50.02
12799;BME280;19250;42.646;26.980;2022-07-12T04:08:14;99205.13;;;20.52;48.50
12799;BME280;19250;42.646;26.980;2022-07-12T04:10:41;99199.63;;;20.66;50.21
12799;BME280;19250;42.646;26.980;2022-07-12T04:13:09;99199.59;;;20.72;48.02
12799;BME280;19250;42.646;26.980;2022-07-12T04:15:37;99203.66;;;20.88;49.62
12799;BME280;19250;42.646;26.980;2022-07-12T04:18:05;99199.19;;;21.00;49.54
12799;BME280;19250;42.646;26.980;2022-07-12T04:20:32;99214.09;;;20.84;48.62
12799;BME280;19250;42.646;26.980;2022-07-12T04:22:59;99202.13;;;21.23;47.83
12799;BME280;19250;42.646;26.980;2022-07-12T04:28:12;99232.84;;;21.66;45.15
12799;BME280;19250;42.646;26.980;2022-07-12T04:30:41;99206.72;;;21.47;45.61
12799;BME280;19250;42.646;26.980;2022-07-12T04:33:10;99171.88;;;21.44;44.13
12799;BME280;19250;42.646;26.980;2022-07-12T04:35:37;99213.00;;;21.66;45.72
12799;BME280;19250;42.646;26.980;2022-07-12T04:38:04;99207.19;;;21.62;46.23
12799;BME280;19250;42.646;26.980;2022-07-12T04:40:31;99208.16;;;21.68;45.17
12799;BME280;19250;42.646;26.980;2022-07-12T04:42:59;99221.59;;;21.81;45.23
12799;BME280;19250;42.646;26.980;2022-07-12T04:45:26;99228.25;;;21.85;45.09
12799;BME280;19250;42.646;26.980;2022-07-12T04:47:55;99221.56;;;22.06;44.70
12799;BME280;19250;42.646;26.980;2022-07-12T04:50:22;99209.22;;;22.10;45.83
12799;BME280;19250;42.646;26.980;2022-07-12T04:52:49;99219.16;;;22.16;44.51
12799;BME280;19250;42.646;26.980;2022-07-12T04:55:17;99215.53;;;22.52;43.48
12799;BME280;19250;42.646;26.980;2022-07-12T04:57:44;99190.53;;;22.32;43.83
12799;BME280;19250;42.646;26.980;2022-07-12T05:00:12;99215.16;;;22.48;43.65
12799;BME280;19250;42.646;26.980;2022-07-12T05:02:39;99223.09;;;22.68;43.96
12799;BME280;19250;42.646;26.980;2022-07-12T05:05:08;99218.91;;;22.84;42.42
12799;BME280;19250;42.646;26.980;2022-07-12T05:07:35;99215.75;;;22.20;43.39
12799;BME280;19250;42.646;26.980;2022-07-12T05:10:03;99216.56;;;22.39;41.89
12799;BME280;19250;42.646;26.980;2022-07-12T05:12:31;99215.16;;;22.66;42.26
12799;BME280;19250;42.646;26.980;2022-07-12T05:14:58;99220.53;;;22.85;42.48
12799;BME280;19250;42.646;26.980;2022-07-12T05:17:25;99220.50;;;23.14;40.17
12799;BME280;19250;42.646;26.980;2022-07-12T05:19:52;99222.50;;;23.30;40.24
12799;BME280;19250;42.646;26.980;2022-07-12T05:22:22;99220.91;;;23.64;38.53
12799;BME280;19250;42.646;26.980;2022-07-12T05:24:49;99218.28;;;23.58;38.96
12799;BME280;19250;42.646;26.980;2022-07-12T05:27:17;99224.56;;;23.81;38.18
12799;BME280;19250;42.646;26.980;2022-07-12T05:29:44;99225.03;;;23.55;38.13
12799;BME280;19250;42.646;26.980;2022-07-12T05:32:11;99224.91;;;23.73;37.68
12799;BME280;19250;42.646;26.980;2022-07-12T05:34:38;99227.16;;;24.00;37.42
12799;BME280;19250;42.646;26.980;2022-07-12T05:37:06;99235.78;;;24.20;37.48
12799;BME280;19250;42.646;26.980;2022-07-12T05:39:35;99233.28;;;24.30;36.75
12799;BME280;19250;42.646;26.980;2022-07-12T05:42:02;99230.56;;;24.30;36.92
12799;BME280;19250;42.646;26.980;2022-07-12T05:44:30;99225.06;;;24.42;36.87
12799;BME280;19250;42.646;26.980;2022-07-12T05:46:57;99224.41;;;24.23;36.62
12799;BME280;19250;42.646;26.980;2022-07-12T05:49:24;99230.91;;;24.33;36.59
12799;BME280;19250;42.646;26.980;2022-07-12T05:51:52;99232.53;;;24.34;36.80
12799;BME280;19250;42.646;26.980;2022-07-12T05:54:38;99231.31;;;23.91;37.09
12799;BME280;19250;42.646;26.980;2022-07-12T05:57:05;99231.41;;;23.96;37.14
12799;BME280;19250;42.646;26.980;2022-07-12T05:59:34;99227.16;;;24.11;36.70
12799;BME280;19250;42.646;26.980;2022-07-12T06:02:01;99235.69;;;24.55;37.21
12799;BME280;19250;42.646;26.980;2022-07-12T06:04:29;99224.47;;;24.68;35.58
12799;BME280;19250;42.646;26.980;2022-07-12T06:06:56;99228.44;;;24.60;36.06
12799;BME280;19250;42.646;26.980;2022-07-12T06:09:24;99233.97;;;24.65;36.36
12799;BME280;19250;42.646;26.980;2022-07-12T06:11:52;99235.72;;;24.71;36.77
12799;BME280;19250;42.646;26.980;2022-07-12T06:14:20;99233.09;;;24.76;36.21
12799;BME280;19250;42.646;26.980;2022-07-12T06:16:47;99230.84;;;24.85;36.27
12799;BME280;19250;42.646;26.980;2022-07-12T06:19:14;99233.03;;;25.16;35.42
12799;BME280;19250;42.646;26.980;2022-07-12T06:21:41;99227.25;;;25.13;35.10
12799;BME280;19250;42.646;26.980;2022-07-12T06:24:08;99235.00;;;25.21;35.02
12799;BME280;19250;42.646;26.980;2022-07-12T06:26:36;99233.41;;;25.53;35.05
12799;BME280;19250;42.646;26.980;2022-07-12T06:29:04;99224.69;;;25.94;34.40
12799;BME280;19250;42.646;26.980;2022-07-12T06:31:32;99232.97;;;25.99;33.29
12799;BME280;19250;42.646;26.980;2022-07-12T06:34:01;99222.69;;;26.07;33.13
12799;BME280;19250;42.646;26.980;2022-07-12T06:36:28;99219.03;;;25.63;32.73
12799;BME280;19250;42.646;26.980;2022-07-12T06:38:55;99219.63;;;26.03;33.26
12799;BME280;19250;42.646;26.980;2022-07-12T06:41:23;99224.81;;;26.21;32.78
12799;BME280;19250;42.646;26.980;2022-07-12T06:43:50;99221.00;;;25.84;32.61
12799;BME280;19250;42.646;26.980;2022-07-12T06:46:19;99210.38;;;26.26;32.68
12799;BME280;19250;42.646;26.980;2022-07-12T06:48:46;99222.28;;;25.98;31.98
12799;BME280;19250;42.646;26.980;2022-07-12T06:51:13;99222.47;;;25.91;31.73
12799;BME280;19250;42.646;26.980;2022-07-12T06:53:40;99204.84;;;26.21;31.98
12799;BME280;19250;42.646;26.980;2022-07-12T06:56:08;99215.06;;;26.30;32.22
12799;BME280;19250;42.646;26.980;2022-07-12T06:58:35;99220.34;;;26.85;31.62
12799;BME280;19250;42.646;26.980;2022-07-12T07:01:02;99222.66;;;26.45;31.02
12799;BME280;19250;42.646;26.980;2022-07-12T07:03:31;99183.06;;;26.79;30.91
12799;BME280;19250;42.646;26.980;2022-07-12T07:05:58;99206.72;;;27.17;31.18
12799;BME280;19250;42.646;26.980;2022-07-12T07:08:25;99214.47;;;26.98;31.57
12799;BME280;19250;42.646;26.980;2022-07-12T07:10:52;99210.88;;;26.93;31.21
12799;BME280;19250;42.646;26.980;2022-07-12T07:13:20;99216.06;;;26.94;29.77
12799;BME280;19250;42.646;26.980;2022-07-12T07:15:47;99210.72;;;27.10;30.26
12799;BME280;19250;42.646;26.980;2022-07-12T07:18:14;99202.69;;;26.98;30.47
12799;BME280;19250;42.646;26.980;2022-07-12T07:20:43;99180.84;;;26.76;29.36
12799;BME280;19250;42.646;26.980;2022-07-12T07:23:10;99212.91;;;27.08;29.99
12799;BME280;19250;42.646;26.980;2022-07-12T07:25:40;99202.88;;;27.18;29.01
12799;BME280;19250;42.646;26.980;2022-07-12T07:28:07;99211.50;;;27.00;29.92
12799;BME280;19250;42.646;26.980;2022-07-12T07:30:34;99204.66;;;27.02;29.80
12799;BME280;19250;42.646;26.980;2022-07-12T07:33:19;99206.13;;;27.47;28.96
12799;BME280;19250;42.646;26.980;2022-07-12T07:35:48;99203.84;;;28.18;28.20
12799;BME280;19250;42.646;26.980;2022-07-12T07:38:16;99206.78;;;28.68;26.07
12799;BME280;19250;42.646;26.980;2022-07-12T07:40:44;99205.16;;;28.77;27.63
12799;BME280;19250;42.646;26.980;2022-07-12T07:43:12;99206.94;;;28.31;27.29
12799;BME280;19250;42.646;26.980;2022-07-12T07:45:39;99210.75;;;28.30;26.45
12799;BME280;19250;42.646;26.980;2022-07-12T07:48:07;99201.34;;;28.11;27.39
12799;BME280;19250;42.646;26.980;2022-07-12T07:50:34;99215.81;;;26.96;26.73
12799;BME280;19250;42.646;26.980;2022-07-12T07:53:02;99214.97;;;26.20;28.13
12799;BME280;19250;42.646;26.980;2022-07-12T07:55:30;99213.63;;;26.44;27.54
12799;BME280;19250;42.646;26.980;2022-07-12T07:57:57;99220.69;;;25.64;28.75
12799;BME280;19250;42.646;26.980;2022-07-12T08:00:26;99226.47;;;26.44;28.99
12799;BME280;19250;42.646;26.980;2022-07-12T08:02:54;99209.94;;;27.09;28.90
12799;BME280;19250;42.646;26.980;2022-07-12T08:05:21;99204.97;;;27.75;28.06
12799;BME280;19250;42.646;26.980;2022-07-12T08:07:49;99207.88;;;28.67;24.45
12799;BME280;19250;42.646;26.980;2022-07-12T08:10:17;99210.97;;;28.96;25.21
12799;BME280;19250;42.646;26.980;2022-07-12T08:12:45;99114.28;;;27.86;25.09
12799;BME280;19250;42.646;26.980;2022-07-12T08:15:12;99198.75;;;28.56;27.01
12799;BME280;19250;42.646;26.980;2022-07-12T08:17:39;99198.88;;;29.12;25.40
12799;BME280;19250;42.646;26.980;2022-07-12T08:20:07;99194.19;;;29.78;25.14
12799;BME280;19250;42.646;26.980;2022-07-12T08:22:42;99195.41;;;30.26;23.71
12799;BME280;19250;42.646;26.980;2022-07-12T08:25:10;99199.41;;;30.59;24.12
12799;BME280;19250;42.646;26.980;2022-07-12T08:27:38;99192.00;;;27.65;26.36
12799;BME280;19250;42.646;26.980;2022-07-12T08:30:07;99189.81;;;28.91;26.16
12799;BME280;19250;42.646;26.980;2022-07-12T08:32:35;99112.38;;;29.04;25.20
12799;BME280;19250;42.646;26.980;2022-07-12T08:35:02;99174.16;;;29.12;24.97
12799;BME280;19250;42.646;26.980;2022-07-12T08:37:30;99191.13;;;29.85;24.88
12799;BME280;19250;42.646;26.980;2022-07-12T08:39:57;99185.06;;;29.98;24.73
12799;BME280;19250;42.646;26.980;2022-07-12T08:42:24;99188.19;;;30.45;23.01
12799;BME280;19250;42.646;26.980;2022-07-12T08:44:57;99175.69;;;30.04;24.57
12799;BME280;19250;42.646;26.980;2022-07-12T08:47:24;99168.38;;;30.43;23.86
12799;BME280;19250;42.646;26.980;2022-07-12T08:50:12;99178.59;;;30.82;23.41
12799;BME280;19250;42.646;26.980;2022-07-12T08:52:40;99191.88;;;31.13;23.04
12799;BME280;19250;42.646;26.980;2022-07-12T08:55:20;99176.53;;;31.02;23.30
12799;BME280;19250;42.646;26.980;2022-07-12T08:57:49;99183.13;;;31.06;23.60
12799;BME280;19250;42.646;26.980;2022-07-12T09:00:18;99174.16;;;31.24;22.61
12799;BME280;19250;42.646;26.980;2022-07-12T09:02:50;99145.19;;;31.27;23.19
12799;BME280;19250;42.646;26.980;2022-07-12T09:05:20;99160.69;;;31.47;23.34
12799;BME280;19250;42.646;26.980;2022-07-12T09:07:48;99128.13;;;31.54;23.03
12799;BME280;19250;42.646;26.980;2022-07-12T09:10:15;99171.22;;;31.73;23.52
12799;BME280;19250;42.646;26.980;2022-07-12T09:12:43;99175.00;;;32.06;22.04
12799;BME280;19250;42.646;26.980;2022-07-12T09:15:18;99175.59;;;32.03;22.68
12799;BME280;19250;42.646;26.980;2022-07-12T09:17:54;99170.38;;;31.44;22.72
12799;BME280;19250;42.646;26.980;2022-07-12T09:20:22;99180.28;;;30.18;23.69
12799;BME280;19250;42.646;26.980;2022-07-12T09:22:59;99174.91;;;29.93;23.76
12799;BME280;19250;42.646;26.980;2022-07-12T09:25:27;99173.44;;;30.16;24.83
12799;BME280;19250;42.646;26.980;2022-07-12T09:27:55;99164.78;;;30.48;23.43
12799;BME280;19250;42.646;26.980;2022-07-12T09:30:25;99158.47;;;29.53;24.04
12799;BME280;19250;42.646;26.980;2022-07-12T09:32:56;99162.53;;;29.96;25.27
12799;BME280;19250;42.646;26.980;2022-07-12T09:35:41;99150.69;;;31.85;25.13
12799;BME280;19250;42.646;26.980;2022-07-12T09:38:26;99154.91;;;32.24;22.29
12799;BME280;19250;42.646;26.980;2022-07-12T09:40:54;99156.47;;;32.30;23.04
12799;BME280;19250;42.646;26.980;2022-07-12T09:43:23;99156.94;;;33.12;20.77
12799;BME280;19250;42.646;26.980;2022-07-12T09:45:52;99158.97;;;32.88;21.27
12799;BME280;19250;42.646;26.980;2022-07-12T09:48:20;99155.13;;;33.03;21.65
12799;BME280;19250;42.646;26.980;2022-07-12T09:50:48;99123.75;;;33.45;20.11
12799;BME280;19250;42.646;26.980;2022-07-12T09:53:21;99165.75;;;33.47;20.58
12799;BME280;19250;42.646;26.980;2022-07-12T09:55:50;99162.91;;;33.19;21.20
12799;BME280;19250;42.646;26.980;2022-07-12T09:58:24;99151.53;;;34.62;19.83
12799;BME280;19250;42.646;26.980;2022-07-12T10:00:55;99145.34;;;35.54;18.89
12799;BME280;19250;42.646;26.980;2022-07-12T10:03:28;99144.88;;;35.30;19.35
12799;BME280;19250;42.646;26.980;2022-07-12T10:05:59;99136.69;;;35.03;19.62
12799;BME280;19250;42.646;26.980;2022-07-12T10:08:27;99136.19;;;35.53;19.28
12799;BME280;19250;42.646;26.980;2022-07-12T10:10:54;99138.06;;;35.97;18.22
12799;BME280;19250;42.646;26.980;2022-07-12T10:13:22;99144.47;;;35.14;18.66
12799;BME280;19250;42.646;26.980;2022-07-12T10:15:50;99134.16;;;33.80;19.31
12799;BME280;19250;42.646;26.980;2022-07-12T10:18:20;99135.19;;;34.25;19.21
12799;BME280;19250;42.646;26.980;2022-07-12T10:20:49;99121.44;;;34.91;19.63
12799;BME280;19250;42.646;26.980;2022-07-12T10:23:35;99114.00;;;32.26;19.60
12799;BME280;19250;42.646;26.980;2022-07-12T10:26:24;99122.06;;;34.03;19.95
12799;BME280;19250;42.646;26.980;2022-07-12T10:28:55;99094.34;;;34.30;18.70
12799;BME280;19250;42.646;26.980;2022-07-12T10:31:24;99121.56;;;34.64;19.09
12799;BME280;19250;42.646;26.980;2022-07-12T10:34:10;99122.97;;;35.50;18.52
12799;BME280;19250;42.646;26.980;2022-07-12T10:37:07;99132.00;;;36.95;16.84
12799;BME280;19250;42.646;26.980;2022-07-12T10:39:36;99135.09;;;36.42;17.19
12799;BME280;19250;42.646;26.980;2022-07-12T10:42:14;99129.56;;;32.41;20.15
12799;BME280;19250;42.646;26.980;2022-07-12T10:44:45;99128.28;;;33.95;19.73
12799;BME280;19250;42.646;26.980;2022-07-12T10:47:13;99085.00;;;33.17;20.01
12799;BME280;19250;42.646;26.980;2022-07-12T10:49:50;99121.44;;;34.56;19.24
12799;BME280;19250;42.646;26.980;2022-07-12T10:52:25;99044.03;;;34.01;18.77
12799;BME280;19250;42.646;26.980;2022-07-12T10:55:17;99119.91;;;33.59;20.05
12799;BME280;19250;42.646;26.980;2022-07-12T10:57:46;99119.94;;;32.57;20.22
12799;BME280;19250;42.646;26.980;2022-07-12T11:00:16;99122.53;;;32.49;19.45
12799;BME280;19250;42.646;26.980;2022-07-12T11:02:45;99108.22;;;31.62;20.09
12799;BME280;19250;42.646;26.980;2022-07-12T11:05:14;99111.00;;;31.57;20.46
12799;BME280;19250;42.646;26.980;2022-07-12T11:07:41;99120.41;;;32.03;20.37
12799;BME280;19250;42.646;26.980;2022-07-12T11:10:11;99108.44;;;33.20;20.35
12799;BME280;19250;42.646;26.980;2022-07-12T11:12:40;99106.56;;;34.87;21.03
12799;BME280;19250;42.646;26.980;2022-07-12T11:15:08;99107.47;;;35.49;19.63
12799;BME280;19250;42.646;26.980;2022-07-12T11:17:35;99113.56;;;35.29;19.66
12799;BME280;19250;42.646;26.980;2022-07-12T11:20:08;99111.09;;;35.28;19.87
12799;BME280;19250;42.646;26.980;2022-07-12T11:22:39;99111.56;;;35.83;18.53
12799;BME280;19250;42.646;26.980;2022-07-12T11:25:08;99102.66;;;35.64;19.52
12799;BME280;19250;42.646;26.980;2022-07-12T11:27:36;99111.97;;;36.16;19.31
12799;BME280;19250;42.646;26.980;2022-07-12T11:30:05;99118.38;;;36.16;19.08
12799;BME280;19250;42.646;26.980;2022-07-12T11:32:37;99109.81;;;36.04;18.24
12799;BME280;19250;42.646;26.980;2022-07-12T11:35:17;99119.75;;;35.04;19.49
12799;BME280;19250;42.646;26.980;2022-07-12T11:37:50;99121.34;;;35.19;19.40
12799;BME280;19250;42.646;26.980;2022-07-12T11:40:22;99126.72;;;35.46;19.11
12799;BME280;19250;42.646;26.980;2022-07-12T11:43:00;99064.16;;;36.44;17.17
12799;BME280;19250;42.646;26.980;2022-07-12T11:45:28;99088.38;;;35.17;18.96
12799;BME280;19250;42.646;26.980;2022-07-12T11:47:57;99085.53;;;35.09;18.59
12799;BME280;19250;42.646;26.980;2022-07-12T11:50:25;99122.03;;;36.60;18.41
12799;BME280;19250;42.646;26.980;2022-07-12T11:52:54;99127.88;;;37.35;17.05
12799;BME280;19250;42.646;26.980;2022-07-12T11:55:22;99120.66;;;38.48;17.18
12799;BME280;19250;42.646;26.980;2022-07-12T11:57:49;99117.59;;;39.36;16.54
12799;BME280;19250;42.646;26.980;2022-07-12T12:00:18;99126.75;;;39.81;15.99
12799;BME280;19250;42.646;26.980;2022-07-12T12:02:50;99123.28;;;38.44;16.35
12799;BME280;19250;42.646;26.980;2022-07-12T12:05:18;99117.53;;;38.49;16.56
12799;BME280;19250;42.646;26.980;2022-07-12T12:07:46;99117.75;;;37.22;17.35
12799;BME280;19250;42.646;26.980;2022-07-12T12:10:16;99117.53;;;36.07;18.54
12799;BME280;19250;42.646;26.980;2022-07-12T12:12:45;99110.22;;;35.72;19.31
12799;BME280;19250;42.646;26.980;2022-07-12T12:15:14;99114.34;;;37.08;18.40
12799;BME280;19250;42.646;26.980;2022-07-12T12:17:50;99111.28;;;38.23;18.13
12799;BME280;19250;42.646;26.980;2022-07-12T12:20:19;99119.28;;;38.04;17.61
12799;BME280;19250;42.646;26.980;2022-07-12T12:22:48;99124.03;;;37.66;17.89
12799;BME280;19250;42.646;26.980;2022-07-12T12:25:17;99126.31;;;38.10;17.99
12799;BME280;19250;42.646;26.980;2022-07-12T12:27:46;99111.66;;;37.46;18.14
12799;BME280;19250;42.646;26.980;2022-07-12T12:30:15;99124.31;;;37.00;18.71
12799;BME280;19250;42.646;26.980;2022-07-12T12:32:47;99089.13;;;37.68;17.72
12799;BME280;19250;42.646;26.980;2022-07-12T12:35:17;99052.47;;;38.45;16.61
12799;BME280;19250;42.646;26.980;2022-07-12T12:37:51;99113.03;;;38.36;16.64
12799;BME280;19250;42.646;26.980;2022-07-12T12:40:22;99113.47;;;35.74;18.64
12799;BME280;19250;42.646;26.980;2022-07-12T12:42:49;99120.41;;;36.84;18.18
12799;BME280;19250;42.646;26.980;2022-07-12T12:45:18;99123.69;;;35.95;19.17
12799;BME280;19250;42.646;26.980;2022-07-12T12:47:53;99113.03;;;35.49;19.39
12799;BME280;19250;42.646;26.980;2022-07-12T12:50:37;99036.72;;;35.30;19.02
12799;BME280;19250;42.646;26.980;2022-07-12T12:53:09;99107.69;;;36.01;18.74
12799;BME280;19250;42.646;26.980;2022-07-12T12:55:39;99025.50;;;34.82;19.79
12799;BME280;19250;42.646;26.980;2022-07-12T12:58:06;99099.69;;;34.27;20.96
12799;BME280;19250;42.646;26.980;2022-07-12T13:00:35;99106.75;;;34.19;20.66
12799;BME280;19250;42.646;26.980;2022-07-12T13:03:05;99071.63;;;32.73;22.23